Time;durP1;ratioP1;P1;durP2;ratioP2;P2;SDS_P1;SDS_P2;PMS_P1;PMS_P2;Temp;Humidity;BMP_temperature;BMP_pressure;BME280_temperature;BME280_humidity;BME280_pressure;Samples;Min_cycle;Max_cycle;Signal;HPM_P1;HPM_P2
2024/01/07 00:01:02;;;;;;;34.25;16.08;;;;;;;-146.25;100.00;70816.00;5075513;28;20043;-61
2024/01/07 00:03:27;;;;;;;31.55;14.10;;;;;;;-146.25;100.00;70816.00;5074269;28;20063;-62
2024/01/07 00:05:52;;;;;;;32.22;15.13;;;;;;;-146.25;100.00;70816.00;5072947;28;20434;-61
2024/01/07 00:08:17;;;;;;;32.33;15.57;;;;;;;-146.25;100.00;70816.00;5072227;28;20070;-60
2024/01/07 00:10:43;;;;;;;31.73;14.45;;;;;;;-146.25;100.00;70816.00;5073628;28;20047;-61
2024/01/07 00:13:08;;;;;;;32.33;16.92;;;;;;;-146.25;100.00;70816.00;5075004;28;20085;-62
2024/01/07 00:15:34;;;;;;;30.55;14.27;;;;;;;-146.25;100.00;70816.00;5071390;28;20036;-61
2024/01/07 00:17:59;;;;;;;29.70;13.38;;;;;;;-146.25;100.00;70816.00;5071550;28;20047;-61
2024/01/07 00:20:25;;;;;;;29.70;13.13;;;;;;;-146.25;100.00;70816.00;5071983;28;20036;-62
2024/01/07 00:22:50;;;;;;;30.90;14.60;;;;;;;-146.25;100.00;70816.00;5073430;28;20119;-61
2024/01/07 00:25:15;;;;;;;30.27;14.48;;;;;;;-146.25;100.00;70816.00;5062366;28;20040;-62
2024/01/07 00:27:41;;;;;;;28.50;14.60;;;;;;;-146.25;100.00;70816.00;5074074;28;20082;-61
2024/01/07 00:30:06;;;;;;;29.27;13.13;;;;;;;-146.25;100.00;70816.00;5072158;28;20141;-61
2024/01/07 00:32:32;;;;;;;27.10;12.20;;;;;;;-146.25;100.00;70816.00;5072410;28;20495;-62
2024/01/07 00:34:57;;;;;;;29.23;13.50;;;;;;;-146.25;100.00;70816.00;5071395;28;20067;-60
2024/01/07 00:37:22;;;;;;;29.58;13.15;;;;;;;-146.25;100.00;70816.00;5071445;28;20048;-61
2024/01/07 00:39:48;;;;;;;28.02;12.15;;;;;;;-146.25;100.00;70816.00;5062031;28;20039;-61
2024/01/07 00:42:13;;;;;;;30.67;13.20;;;;;;;-146.25;100.00;70816.00;5072076;28;20036;-61
2024/01/07 00:44:38;;;;;;;28.65;13.43;;;;;;;-146.25;100.00;70816.00;5070465;28;20123;-62
2024/01/07 00:47:04;;;;;;;28.88;13.75;;;;;;;-146.25;100.00;70816.00;5072942;28;20031;-62
2024/01/07 00:49:30;;;;;;;30.25;13.77;;;;;;;-146.25;100.00;70816.00;5071027;28;20060;-63
2024/01/07 00:51:55;;;;;;;29.23;13.85;;;;;;;-146.25;100.00;70816.00;5069953;28;20098;-63
2024/01/07 00:54:21;;;;;;;30.30;14.02;;;;;;;-146.25;100.00;70816.00;5070183;28;20452;-62
2024/01/07 00:56:46;;;;;;;33.33;14.82;;;;;;;-146.25;100.00;70816.00;5072614;28;20043;-62
2024/01/07 00:59:11;;;;;;;32.47;14.88;;;;;;;-146.25;100.00;70816.00;5071942;28;20021;-61
2024/01/07 01:01:37;;;;;;;30.88;13.40;;;;;;;-146.25;100.00;70816.00;5072846;28;20063;-62
2024/01/07 01:04:02;;;;;;;31.67;13.55;;;;;;;-146.25;100.00;70816.00;5072825;28;20025;-61
2024/01/07 01:06:27;;;;;;;31.40;14.05;;;;;;;-146.25;100.00;70816.00;5070992;28;20109;-62
2024/01/07 01:08:53;;;;;;;32.15;14.35;;;;;;;-146.25;100.00;70816.00;5070939;28;20064;-62
2024/01/07 01:11:18;;;;;;;33.35;15.13;;;;;;;-146.25;100.00;70816.00;5070957;28;20040;-61
2024/01/07 01:13:43;;;;;;;32.80;15.43;;;;;;;-146.25;100.00;70816.00;5071196;28;20086;-62
2024/01/07 01:16:08;;;;;;;34.60;17.20;;;;;;;-146.25;100.00;70816.00;5069731;28;20032;-61
2024/01/07 01:18:34;;;;;;;33.78;15.05;;;;;;;-146.25;100.00;70816.00;5072793;28;20055;-61
2024/01/07 01:20:59;;;;;;;34.70;16.40;;;;;;;-146.25;100.00;70816.00;5074059;28;20036;-62
2024/01/07 01:23:24;;;;;;;36.10;16.42;;;;;;;-146.25;100.00;70816.00;5069899;28;20044;-62
2024/01/07 01:25:49;;;;;;;35.80;16.90;;;;;;;-146.25;100.00;70816.00;5074509;28;20127;-60
2024/01/07 01:28:15;;;;;;;37.60;18.70;;;;;;;-146.25;100.00;70816.00;5076258;28;20032;-60
2024/01/07 01:30:41;;;;;;;35.70;17.17;;;;;;;-146.25;100.00;70816.00;5074748;28;20048;-62
2024/01/07 01:33:06;;;;;;;38.85;17.85;;;;;;;-146.25;100.00;70816.00;5075189;28;20085;-62
2024/01/07 01:35:31;;;;;;;35.95;16.73;;;;;;;-146.25;100.00;70816.00;5075521;28;20047;-61
2024/01/07 01:37:56;;;;;;;38.22;17.95;;;;;;;-146.25;100.00;70816.00;5077954;28;20079;-62
2024/01/07 01:40:22;;;;;;;40.22;18.88;;;;;;;-146.25;100.00;70816.00;5076200;28;20028;-61
2024/01/07 01:42:50;;;;;;;37.22;17.58;;;;;;;-146.25;100.00;70816.00;5073565;28;20031;-61
2024/01/07 01:45:15;;;;;;;34.95;16.23;;;;;;;-146.25;100.00;70816.00;5075271;28;20032;-61
2024/01/07 01:47:41;;;;;;;39.75;19.08;;;;;;;-146.25;100.00;70816.00;5075259;28;20029;-62
2024/01/07 01:50:07;;;;;;;36.47;15.23;;;;;;;-146.25;100.00;70816.00;5073751;28;20159;-61
2024/01/07 01:52:33;;;;;;;37.42;16.70;;;;;;;-146.25;100.00;70816.00;5073652;28;20028;-61
2024/01/07 01:54:59;;;;;;;33.60;14.98;;;;;;;-146.25;100.00;70816.00;5075413;28;20058;-62
2024/01/07 01:57:37;;;;;;;34.30;15.38;;;;;;;-146.25;100.00;70816.00;5076201;28;20043;-61
2024/01/07 02:00:05;;;;;;;37.05;16.73;;;;;;;-146.25;100.00;70816.00;5074635;28;20047;-62
2024/01/07 02:02:34;;;;;;;36.83;18.30;;;;;;;-146.25;100.00;70816.00;5076677;28;20399;-61
2024/01/07 02:05:03;;;;;;;39.78;18.52;;;;;;;-146.25;100.00;70816.00;5073502;28;20054;-60
2024/01/07 02:07:32;;;;;;;38.38;16.98;;;;;;;-146.25;100.00;70816.00;5074096;28;20043;-60
2024/01/07 02:09:58;;;;;;;37.97;17.48;;;;;;;-146.25;100.00;70816.00;5075684;28;20044;-60
2024/01/07 02:12:23;;;;;;;39.17;17.73;;;;;;;-146.25;100.00;70816.00;5074850;28;20032;-60
2024/01/07 02:14:48;;;;;;;40.50;18.15;;;;;;;-146.25;100.00;70816.00;5075356;28;20047;-60
2024/01/07 02:17:15;;;;;;;41.80;18.85;;;;;;;-146.25;100.00;70816.00;5074317;28;20064;-62
2024/01/07 02:19:40;;;;;;;42.38;18.55;;;;;;;-146.25;100.00;70816.00;5075821;28;20028;-60
2024/01/07 02:22:05;;;;;;;43.05;19.13;;;;;;;-146.25;100.00;70816.00;5074006;28;20040;-62
2024/01/07 02:24:31;;;;;;;38.75;16.55;;;;;;;-146.25;100.00;70816.00;5073916;28;20141;-61
2024/01/07 02:26:57;;;;;;;44.55;23.10;;;;;;;-146.25;100.00;70816.00;5075024;28;21206;-61
2024/01/07 02:29:22;;;;;;;42.58;21.58;;;;;;;-146.25;100.00;70816.00;5074379;28;20476;-61
2024/01/07 02:31:47;;;;;;;47.25;21.40;;;;;;;-146.25;100.00;70816.00;5073272;28;20043;-61
2024/01/07 02:34:13;;;;;;;44.28;19.38;;;;;;;-146.25;100.00;70816.00;5073502;28;20052;-61
2024/01/07 02:36:38;;;;;;;41.33;19.88;;;;;;;-146.25;100.00;70816.00;5072291;28;20051;-62
2024/01/07 02:39:03;;;;;;;44.55;19.25;;;;;;;-146.25;100.00;70816.00;5072848;28;20048;-60
2024/01/07 02:41:29;;;;;;;48.13;20.83;;;;;;;-146.25;100.00;70816.00;5073820;28;20045;-60
2024/01/07 02:43:54;;;;;;;43.95;19.40;;;;;;;-146.25;100.00;70816.00;5075584;28;20431;-61
2024/01/07 02:46:20;;;;;;;45.05;21.70;;;;;;;-146.25;100.00;70816.00;5072388;28;20063;-61
2024/01/07 02:48:45;;;;;;;49.33;23.55;;;;;;;-146.25;100.00;70816.00;5073509;28;20113;-61
2024/01/07 02:51:11;;;;;;;45.35;19.83;;;;;;;-146.25;100.00;70816.00;5072750;28;20036;-60
2024/01/07 02:53:36;;;;;;;46.30;20.27;;;;;;;-146.25;100.00;70816.00;5072132;28;20305;-59
2024/01/07 02:56:01;;;;;;;45.45;21.20;;;;;;;-146.25;100.00;70816.00;5073047;28;20459;-60
2024/01/07 02:58:27;;;;;;;48.92;24.35;;;;;;;-146.25;100.00;70816.00;5074777;28;20039;-60
2024/01/07 03:00:52;;;;;;;44.45;20.15;;;;;;;-146.25;100.00;70816.00;5073691;28;20035;-61
2024/01/07 03:03:17;;;;;;;49.15;22.70;;;;;;;-146.25;100.00;70816.00;5073355;28;20051;-61
2024/01/07 03:05:43;;;;;;;46.88;22.50;;;;;;;-146.25;100.00;70816.00;5072169;28;20538;-60
2024/01/07 03:08:08;;;;;;;43.83;20.55;;;;;;;-146.25;100.00;70816.00;5075059;28;20127;-60
2024/01/07 03:10:33;;;;;;;47.13;22.42;;;;;;;-146.25;100.00;70816.00;5062617;28;20443;-60
2024/01/07 03:13:00;;;;;;;45.53;20.90;;;;;;;-146.25;100.00;70816.00;5073881;28;20059;-61
2024/01/07 03:15:26;;;;;;;43.45;19.83;;;;;;;-146.25;100.00;70816.00;5073350;28;20068;-61
2024/01/07 03:17:51;;;;;;;47.72;22.60;;;;;;;-146.25;100.00;70816.00;5071368;28;22638;-62
2024/01/07 03:20:16;;;;;;;42.50;20.80;;;;;;;-146.25;100.00;70816.00;5072276;28;20113;-61
2024/01/07 03:22:41;;;;;;;37.95;17.88;;;;;;;-146.25;100.00;70816.00;5072891;28;20035;-61
2024/01/07 03:25:07;;;;;;;41.47;19.50;;;;;;;-146.25;100.00;70816.00;5074794;28;20031;-61
2024/01/07 03:27:33;;;;;;;39.30;17.48;;;;;;;-146.25;100.00;70816.00;5072466;28;20089;-61
2024/01/07 03:29:58;;;;;;;39.28;19.73;;;;;;;-146.25;100.00;70816.00;5074661;28;20048;-60
2024/01/07 03:32:23;;;;;;;39.95;20.17;;;;;;;-146.25;100.00;70816.00;5074590;28;20041;-61
2024/01/07 03:34:48;;;;;;;38.30;16.38;;;;;;;-146.25;100.00;70816.00;5073451;28;20040;-61
2024/01/07 03:37:14;;;;;;;40.50;19.80;;;;;;;-146.25;100.00;70816.00;5071391;28;20052;-61
2024/01/07 03:39:39;;;;;;;38.15;19.10;;;;;;;-146.25;100.00;70816.00;5074227;28;20146;-60
2024/01/07 03:42:11;;;;;;;39.60;18.83;;;;;;;-146.25;100.00;70816.00;5061963;28;20040;-61
2024/01/07 03:44:36;;;;;;;35.97;17.05;;;;;;;-146.25;100.00;70816.00;5074796;28;20039;-61
2024/01/07 03:47:01;;;;;;;39.75;19.35;;;;;;;-146.25;100.00;70816.00;5071986;28;20036;-61
2024/01/07 03:49:26;;;;;;;39.05;18.30;;;;;;;-146.25;100.00;70816.00;5071652;28;20412;-60
2024/01/07 03:51:52;;;;;;;37.13;18.13;;;;;;;-146.25;100.00;70816.00;5072044;28;20063;-61
2024/01/07 03:54:17;;;;;;;38.00;18.38;;;;;;;-146.25;100.00;70816.00;5071669;28;20446;-61
2024/01/07 03:56:42;;;;;;;37.53;18.40;;;;;;;-146.25;100.00;70816.00;5070794;28;20467;-62
2024/01/07 03:59:08;;;;;;;37.55;17.38;;;;;;;-146.25;100.00;70816.00;5074427;28;20801;-62
2024/01/07 04:01:33;;;;;;;37.55;16.13;;;;;;;-146.25;100.00;70816.00;5071404;28;20029;-62
2024/01/07 04:03:58;;;;;;;36.38;16.88;;;;;;;-146.25;100.00;70816.00;5071431;28;20079;-62
2024/01/07 04:06:24;;;;;;;36.65;15.15;;;;;;;-146.25;100.00;70816.00;5072867;28;20483;-60
2024/01/07 04:08:49;;;;;;;34.85;15.30;;;;;;;-146.25;100.00;70816.00;5074684;28;20071;-61
2024/01/07 04:11:14;;;;;;;37.03;16.88;;;;;;;-146.25;100.00;70816.00;5073676;28;20079;-60
2024/01/07 04:13:40;;;;;;;38.33;16.42;;;;;;;-146.25;100.00;70816.00;5072387;28;20352;-61
2024/01/07 04:16:05;;;;;;;39.00;16.73;;;;;;;-146.25;100.00;70816.00;5073663;28;20160;-61
2024/01/07 04:18:30;;;;;;;37.13;17.98;;;;;;;-146.25;100.00;70816.00;5071701;28;20036;-60
2024/01/07 04:20:56;;;;;;;35.85;15.05;;;;;;;-146.25;100.00;70816.00;5071887;28;20043;-61
2024/01/07 04:23:21;;;;;;;34.90;15.15;;;;;;;-146.25;100.00;70816.00;5073303;28;20413;-61
2024/01/07 04:25:46;;;;;;;36.92;18.10;;;;;;;-146.25;100.00;70816.00;5061806;28;20047;-60
2024/01/07 04:28:12;;;;;;;34.42;15.02;;;;;;;-146.25;100.00;70816.00;5071140;28;20048;-61
2024/01/07 04:30:37;;;;;;;35.58;16.35;;;;;;;-146.25;100.00;70816.00;5070927;28;20037;-61
2024/01/07 04:33:03;;;;;;;33.33;14.43;;;;;;;-146.25;100.00;70816.00;5072035;28;20038;-61
2024/01/07 04:35:28;;;;;;;32.20;14.02;;;;;;;-146.25;100.00;70816.00;5069649;28;20062;-61
2024/01/07 04:37:53;;;;;;;33.05;15.48;;;;;;;-146.25;100.00;70816.00;5071255;28;20048;-62
2024/01/07 04:40:18;;;;;;;33.00;16.40;;;;;;;-146.25;100.00;70816.00;5070541;28;20059;-61
2024/01/07 04:42:44;;;;;;;29.80;13.75;;;;;;;-146.25;100.00;70816.00;5072996;28;20055;-62
2024/01/07 04:45:09;;;;;;;29.52;13.48;;;;;;;-146.25;100.00;70816.00;5070638;28;20468;-61
2024/01/07 04:47:34;;;;;;;30.17;12.63;;;;;;;-146.25;100.00;70816.00;5071768;28;20037;-61
2024/01/07 04:50:00;;;;;;;29.60;12.43;;;;;;;-146.25;100.00;70816.00;5072058;28;20025;-61
2024/01/07 04:52:26;;;;;;;28.33;12.57;;;;;;;-146.25;100.00;70816.00;5073271;28;20039;-61
2024/01/07 04:54:52;;;;;;;25.85;12.05;;;;;;;-146.25;100.00;70816.00;5070604;28;20062;-61
2024/01/07 04:57:18;;;;;;;27.02;11.98;;;;;;;-146.25;100.00;70816.00;5071127;28;20072;-60
2024/01/07 04:59:44;;;;;;;28.27;13.38;;;;;;;-146.25;100.00;70816.00;5070573;28;20056;-59
2024/01/07 05:02:10;;;;;;;26.90;11.75;;;;;;;-146.25;100.00;70816.00;5076375;28;20039;-60
2024/01/07 05:04:35;;;;;;;27.27;12.77;;;;;;;-146.25;100.00;70816.00;5075970;28;20059;-60
2024/01/07 05:07:01;;;;;;;26.98;12.27;;;;;;;-146.25;100.00;70816.00;5077027;28;20032;-60
2024/01/07 05:09:26;;;;;;;28.77;13.15;;;;;;;-146.25;100.00;70816.00;5075721;28;20056;-60
2024/01/07 05:11:51;;;;;;;28.52;12.90;;;;;;;-146.25;100.00;70816.00;5076420;28;20032;-60
2024/01/07 05:14:16;;;;;;;27.13;11.57;;;;;;;-146.25;100.00;70816.00;5074449;28;20496;-61
2024/01/07 05:16:42;;;;;;;27.90;12.93;;;;;;;-146.25;100.00;70816.00;5074383;28;20042;-60
2024/01/07 05:19:07;;;;;;;28.13;13.32;;;;;;;-146.25;100.00;70816.00;5077502;28;20042;-61
2024/01/07 05:21:32;;;;;;;25.83;11.15;;;;;;;-146.25;100.00;70816.00;5072999;28;20083;-59
2024/01/07 05:23:58;;;;;;;28.10;13.38;;;;;;;-146.25;100.00;70816.00;5064230;28;20045;-60
2024/01/07 05:26:23;;;;;;;28.98;12.25;;;;;;;-146.25;100.00;70816.00;5074936;28;20036;-60
2024/01/07 05:28:48;;;;;;;28.15;12.25;;;;;;;-146.25;100.00;70816.00;5077324;28;20050;-61
2024/01/07 05:31:18;;;;;;;29.83;13.30;;;;;;;-146.25;100.00;70816.00;5073578;28;20033;-61
2024/01/07 05:33:44;;;;;;;27.05;12.13;;;;;;;-146.25;100.00;70816.00;5074322;28;20044;-60
2024/01/07 05:36:11;;;;;;;27.25;12.73;;;;;;;-146.25;100.00;70816.00;5074462;28;20047;-61
2024/01/07 05:38:36;;;;;;;29.75;12.77;;;;;;;-146.25;100.00;70816.00;5075187;28;20048;-61
2024/01/07 05:41:01;;;;;;;24.83;10.85;;;;;;;-146.25;100.00;70816.00;5075310;28;20044;-62
2024/01/07 05:43:27;;;;;;;25.10;12.75;;;;;;;-146.25;100.00;70816.00;5077502;28;20059;-60
2024/01/07 05:45:52;;;;;;;25.05;13.95;;;;;;;-146.25;100.00;70816.00;5076568;28;20034;-60
2024/01/07 05:48:21;;;;;;;25.48;12.60;;;;;;;-146.25;100.00;70816.00;5075836;28;20037;-60
2024/01/07 05:50:46;;;;;;;25.58;12.27;;;;;;;-146.25;100.00;70816.00;5076032;28;20048;-60
2024/01/07 05:53:11;;;;;;;25.70;11.85;;;;;;;-146.25;100.00;70816.00;5073316;28;20028;-60
2024/01/07 05:55:36;;;;;;;25.10;10.48;;;;;;;-146.25;100.00;70816.00;5075857;28;20032;-61
2024/01/07 05:58:02;;;;;;;25.75;11.07;;;;;;;-146.25;100.00;70816.00;5074475;28;20040;-59
2024/01/07 06:00:27;;;;;;;23.50;9.38;;;;;;;-146.25;100.00;70816.00;5076572;28;20440;-59
2024/01/07 06:02:52;;;;;;;26.05;13.57;;;;;;;-146.25;100.00;70816.00;5075612;28;20443;-60
2024/01/07 06:05:18;;;;;;;26.23;11.82;;;;;;;-146.25;100.00;70816.00;5089484;28;20032;-60
2024/01/07 06:07:43;;;;;;;27.10;11.50;;;;;;;-146.25;100.00;70816.00;5081625;28;20028;-61
2024/01/07 06:10:08;;;;;;;26.50;10.93;;;;;;;-146.25;100.00;70816.00;5078826;28;20119;-61
2024/01/07 06:12:34;;;;;;;26.85;13.45;;;;;;;-146.25;100.00;70816.00;5073006;28;20044;-61
2024/01/07 06:14:59;;;;;;;26.50;11.02;;;;;;;-146.25;100.00;70816.00;5073033;28;20329;-61
2024/01/07 06:17:24;;;;;;;26.13;12.30;;;;;;;-146.25;100.00;70816.00;5069772;28;20032;-62
2024/01/07 06:19:50;;;;;;;27.33;11.50;;;;;;;-146.25;100.00;70816.00;5070611;28;20111;-61
2024/01/07 06:22:15;;;;;;;28.45;12.00;;;;;;;-146.25;100.00;70816.00;5071828;28;20070;-60
2024/01/07 06:24:40;;;;;;;25.88;11.32;;;;;;;-146.25;100.00;70816.00;5072549;28;20073;-61
2024/01/07 06:27:06;;;;;;;26.52;13.45;;;;;;;-146.25;100.00;70816.00;5069741;28;20119;-61
2024/01/07 06:29:31;;;;;;;25.77;11.35;;;;;;;-146.25;100.00;70816.00;5071024;28;20059;-60
2024/01/07 06:31:56;;;;;;;25.92;11.73;;;;;;;-146.25;100.00;70816.00;5070813;28;20480;-61
2024/01/07 06:34:22;;;;;;;26.83;11.70;;;;;;;-146.25;100.00;70816.00;5072221;28;20044;-63
2024/01/07 06:36:48;;;;;;;26.42;11.52;;;;;;;-146.25;100.00;70816.00;5070254;28;20047;-61
2024/01/07 06:39:13;;;;;;;27.25;13.25;;;;;;;-146.25;100.00;70816.00;5074887;28;20634;-61
2024/01/07 06:41:38;;;;;;;25.38;12.32;;;;;;;-146.25;100.00;70816.00;5073543;28;20434;-60
2024/01/07 06:44:04;;;;;;;27.20;13.60;;;;;;;-146.25;100.00;70816.00;5071182;28;20044;-61
2024/01/07 06:46:29;;;;;;;25.88;10.73;;;;;;;-146.25;100.00;70816.00;5070821;28;20040;-61
2024/01/07 06:48:54;;;;;;;26.33;10.88;;;;;;;-146.25;100.00;70816.00;5072822;28;20464;-62
2024/01/07 06:51:20;;;;;;;26.48;11.52;;;;;;;-146.25;100.00;70816.00;5072823;28;20429;-61
2024/01/07 06:53:45;;;;;;;27.23;11.38;;;;;;;-146.25;100.00;70816.00;5070941;28;20090;-62
2024/01/07 06:56:10;;;;;;;27.00;11.18;;;;;;;-146.25;100.00;70816.00;5071772;28;20040;-62
2024/01/07 06:58:36;;;;;;;25.73;11.07;;;;;;;-146.25;100.00;70816.00;5072205;28;20056;-60
2024/01/07 07:01:02;;;;;;;24.58;11.40;;;;;;;-146.25;100.00;70816.00;5072266;28;20036;-62
2024/01/07 07:03:27;;;;;;;23.65;12.25;;;;;;;-146.25;100.00;70816.00;5071244;28;20042;-61
2024/01/07 07:05:53;;;;;;;25.02;10.77;;;;;;;-146.25;100.00;70816.00;5070522;28;20119;-61
2024/01/07 07:08:18;;;;;;;24.90;11.20;;;;;;;-146.25;100.00;70816.00;5070843;28;20399;-62
2024/01/07 07:10:43;;;;;;;26.08;10.95;;;;;;;-146.25;100.00;70816.00;5060600;28;20032;-61
2024/01/07 07:13:09;;;;;;;25.13;10.80;;;;;;;-146.25;100.00;70816.00;5068745;28;20123;-62
2024/01/07 07:15:35;;;;;;;25.58;11.02;;;;;;;-146.25;100.00;70816.00;5069641;28;20110;-61
2024/01/07 07:18:01;;;;;;;26.48;12.35;;;;;;;-146.25;100.00;70816.00;5071718;28;20071;-62
2024/01/07 07:20:26;;;;;;;24.83;10.95;;;;;;;-146.25;100.00;70816.00;5059693;28;20036;-61
2024/01/07 07:22:51;;;;;;;26.58;12.32;;;;;;;-146.25;100.00;70816.00;5068671;28;20064;-62
2024/01/07 07:25:17;;;;;;;25.60;13.30;;;;;;;-146.25;100.00;70816.00;5072939;28;20129;-63
2024/01/07 07:27:43;;;;;;;26.40;11.30;;;;;;;-146.25;100.00;70816.00;5068740;28;20400;-65
2024/01/07 07:30:08;;;;;;;26.83;11.02;;;;;;;-146.25;100.00;70816.00;5068213;28;20376;-62
2024/01/07 07:32:33;;;;;;;23.98;10.88;;;;;;;-146.25;100.00;70816.00;5069964;28;20040;-62
2024/01/07 07:34:59;;;;;;;24.83;10.38;;;;;;;-146.25;100.00;70816.00;5068770;28;20040;-62
2024/01/07 07:37:25;;;;;;;26.00;10.52;;;;;;;-146.25;100.00;70816.00;5068399;28;20044;-62
2024/01/07 07:39:50;;;;;;;25.05;10.02;;;;;;;-146.25;100.00;70816.00;5069133;28;20063;-61
2024/01/07 07:42:16;;;;;;;26.17;10.88;;;;;;;-146.25;100.00;70816.00;5068049;28;20044;-63
2024/01/07 07:44:48;;;;;;;25.88;12.25;;;;;;;;;;5111286;27;20752;-58
2024/01/07 07:47:13;;;;;;;25.23;10.40;;;;;;;;;;5111769;28;20790;-59
2024/01/07 07:49:40;;;;;;;26.07;11.43;;;;;;;;;;5113305;28;20268;-59
2024/01/07 07:52:06;;;;;;;24.67;10.65;;;;;;;;;;5116033;28;20281;-59
2024/01/07 07:54:31;;;;;;;25.65;11.30;;;;;;;;;;5107631;28;20043;-59
2024/01/07 07:56:56;;;;;;;25.57;10.73;;;;;;;;;;5113289;28;20062;-57
2024/01/07 07:59:21;;;;;;;25.10;10.93;;;;;;;;;;5104780;28;20313;-59
2024/01/07 08:01:47;;;;;;;24.98;10.80;;;;;;;;;;5108110;28;20265;-58
2024/01/07 08:04:12;;;;;;;26.52;10.85;;;;;;;;;;5099930;28;20062;-59
2024/01/07 08:06:37;;;;;;;25.38;10.43;;;;;;;;;;5114273;28;20031;-59
2024/01/07 08:09:02;;;;;;;24.37;10.73;;;;;;;;;;5110801;28;20107;-58
2024/01/07 08:11:29;;;;;;;26.88;11.10;;;;;;;;;;5111541;28;20261;-59
2024/01/07 08:13:54;;;;;;;26.38;11.77;;;;;;;;;;5110981;27;20077;-58
2024/01/07 08:16:20;;;;;;;26.52;10.82;;;;;;;;;;5111517;28;20024;-58
2024/01/07 08:18:46;;;;;;;25.77;13.10;;;;;;;;;;5109783;28;20080;-58
2024/01/07 08:21:11;;;;;;;26.27;12.25;;;;;;;;;;5112227;28;20020;-58
2024/01/07 08:23:37;;;;;;;25.23;11.05;;;;;;;;;;5109840;28;20529;-59
2024/01/07 08:26:02;;;;;;;25.33;10.40;;;;;;;;;;5113215;28;20015;-58
2024/01/07 08:28:27;;;;;;;25.25;11.20;;;;;;;;;;5109107;28;20028;-59
2024/01/07 08:30:53;;;;;;;24.85;9.60;;;;;;;;;;5113265;28;20458;-58
2024/01/07 08:33:18;;;;;;;25.58;12.27;;;;;;;;;;5108212;27;20096;-60
2024/01/07 08:35:43;;;;;;;27.77;12.30;;;;;;;;;;5112175;28;20755;-59
2024/01/07 08:38:09;;;;;;;25.85;10.75;;;;;;;;;;5110757;28;20348;-60
2024/01/07 08:40:34;;;;;;;24.20;9.90;;;;;;;;;;5112520;28;20019;-59
2024/01/07 08:42:59;;;;;;;25.20;12.68;;;;;;;;;;5107812;28;20056;-60
2024/01/07 08:45:24;;;;;;;23.30;9.55;;;;;;;;;;5107300;28;20045;-59
2024/01/07 08:47:50;;;;;;;25.15;11.38;;;;;;;;;;5110526;27;20488;-59
2024/01/07 08:50:15;;;;;;;23.27;9.03;;;;;;;;;;5111175;28;20023;-57
2024/01/07 08:52:40;;;;;;;22.38;9.32;;;;;;;;;;5110963;27;20262;-57
2024/01/07 08:55:07;;;;;;;23.43;9.97;;;;;;;;;;5107173;27;20019;-57
2024/01/07 08:57:32;;;;;;;23.17;9.45;;;;;;;;;;5098598;28;20268;-55
2024/01/07 08:59:57;;;;;;;22.13;8.57;;;;;;;;;;5096787;28;20016;-56
2024/01/07 09:02:23;;;;;;;23.90;9.77;;;;;;;;;;5097708;28;20051;-56
2024/01/07 09:04:48;;;;;;;22.27;9.73;;;;;;;;;;5096103;28;20262;-58
2024/01/07 09:07:16;;;;;;;23.70;10.10;;;;;;;;;;5097747;28;20741;-57
2024/01/07 09:09:41;;;;;;;23.42;9.32;;;;;;;;;;5090631;28;20468;-57
2024/01/07 09:12:06;;;;;;;22.80;9.95;;;;;;;;;;5095563;28;20024;-58
2024/01/07 09:14:32;;;;;;;23.92;9.82;;;;;;;;;;5093363;28;20030;-55
2024/01/07 09:16:57;;;;;;;24.20;10.90;;;;;;;;;;5094343;28;20024;-57
2024/01/07 09:19:22;;;;;;;24.60;10.50;;;;;;;;;;5095145;28;20261;-57
2024/01/07 09:21:47;;;;;;;23.35;9.35;;;;;;;;;;5096134;28;20459;-57
2024/01/07 09:24:12;;;;;;;22.33;9.60;;;;;;;;;;5078690;28;20529;-57
2024/01/07 09:26:39;;;;;;;19.85;9.10;;;;;;;;;;5075744;28;20350;-57
2024/01/07 09:29:04;;;;;;;21.90;9.13;;;;;;;;;;5090206;28;20098;-58
2024/01/07 09:31:30;;;;;;;22.50;8.77;;;;;;;;;;5090166;28;20151;-58
2024/01/07 09:33:55;;;;;;;21.70;9.82;;;;;;;;;;5081150;28;20048;-57
2024/01/07 09:36:20;;;;;;;20.90;7.88;;;;;;;;;;5073629;28;20024;-57
2024/01/07 09:38:46;;;;;;;22.05;9.18;;;;;;;;;;5079921;28;20037;-58
2024/01/07 09:41:11;;;;;;;21.10;9.35;;;;;;;;;;5088711;28;20031;-57
2024/01/07 09:43:36;;;;;;;20.98;8.43;;;;;;;;;;5082804;28;20056;-57
2024/01/07 09:46:01;;;;;;;22.10;8.33;;;;;;;;;;5072063;28;20029;-58
2024/01/07 09:48:27;;;;;;;23.35;8.77;;;;;;;;;;5080022;28;20278;-57
2024/01/07 09:50:52;;;;;;;22.25;11.70;;;;;;;;;;5090192;28;20030;-57
2024/01/07 09:53:19;;;;;;;22.95;10.98;;;;;;;;;;5089402;28;20035;-57
2024/01/07 09:55:56;;;;;;;21.70;8.75;;;;;;;;;;5088994;28;20626;-57
2024/01/07 09:58:21;;;;;;;21.25;9.35;;;;;;;;;;5091254;28;20019;-57
2024/01/07 10:00:47;;;;;;;22.45;9.05;;;;;;;;;;5088866;28;20016;-57
2024/01/07 10:03:12;;;;;;;22.35;9.27;;;;;;;;;;5091286;28;20031;-57
2024/01/07 10:05:37;;;;;;;22.00;8.88;;;;;;;;;;5082551;28;20029;-57
2024/01/07 10:08:02;;;;;;;24.42;9.98;;;;;;;;;;5076636;28;20475;-56
2024/01/07 10:10:28;;;;;;;21.95;9.45;;;;;;;;;;5074137;28;20021;-57
2024/01/07 10:12:56;;;;;;;23.73;10.10;;;;;;;;;;5080599;28;20103;-57
2024/01/07 10:15:21;;;;;;;22.13;8.13;;;;;;;;;;5072026;28;20043;-58
2024/01/07 10:17:48;;;;;;;22.77;9.67;;;;;;;;;;5072506;28;20020;-59
2024/01/07 10:20:13;;;;;;;21.95;8.63;;;;;;;;;;5072261;28;21065;-58
2024/01/07 10:22:38;;;;;;;21.95;8.77;;;;;;;;;;5071678;28;20070;-59
2024/01/07 10:25:03;;;;;;;21.90;8.57;;;;;;;;;;5071531;28;20107;-57
2024/01/07 10:27:29;;;;;;;23.42;10.20;;;;;;;;;;5071255;28;20030;-57
2024/01/07 10:29:55;;;;;;;22.17;9.13;;;;;;;;;;5071463;28;20027;-56
2024/01/07 10:32:20;;;;;;;21.42;10.27;;;;;;;;;;5071354;28;20020;-57
2024/01/07 10:34:47;;;;;;;23.75;9.88;;;;;;;;;;5078415;28;20028;-59
2024/01/07 10:37:12;;;;;;;22.02;9.85;;;;;;;;;;5082756;28;20027;-57
2024/01/07 10:39:38;;;;;;;24.92;9.25;;;;;;;;;;5075176;28;20020;-57
2024/01/07 10:42:03;;;;;;;22.42;10.10;;;;;;;;;;5076633;28;20024;-57
2024/01/07 10:44:30;;;;;;;23.40;9.52;;;;;;;;;;5076141;28;20527;-58
2024/01/07 10:46:58;;;;;;;23.15;9.68;;;;;;;;;;5072713;28;20024;-58
2024/01/07 10:49:25;;;;;;;23.52;10.90;;;;;;;;;;5082822;28;20050;-56
2024/01/07 10:51:56;;;;;;;22.23;9.27;;;;;;;;;;5070781;28;20063;-58
2024/01/07 10:54:23;;;;;;;22.67;9.77;;;;;;;;;;5082268;28;20032;-57
2024/01/07 10:56:50;;;;;;;23.02;8.98;;;;;;;;;;5070828;28;20017;-59
2024/01/07 10:59:16;;;;;;;22.92;8.57;;;;;;;;;;5077089;28;20027;-57
2024/01/07 11:01:41;;;;;;;22.90;9.15;;;;;;;;;;5093028;28;20499;-58
2024/01/07 11:04:12;;;;;;;21.83;8.90;;;;;;;;;;5093692;28;20103;-57
2024/01/07 11:06:43;;;;;;;22.60;8.32;;;;;;;;;;5093550;28;20047;-56
2024/01/07 11:09:29;;;;;;;23.88;9.93;;;;;;;;;;5092164;28;20023;-58
2024/01/07 11:11:54;;;;;;;23.00;9.15;;;;;;;;;;5094723;28;20376;-59
2024/01/07 11:14:32;;;;;;;22.50;9.48;;;;;;;;;;5092374;28;20027;-58
2024/01/07 11:16:57;;;;;;;23.98;11.20;;;;;;;;;;5078829;28;21863;-57
2024/01/07 11:19:23;;;;;;;21.53;8.53;;;;;;;;;;5084585;28;20019;-57
2024/01/07 11:21:48;;;;;;;21.70;8.63;;;;;;;;;;5091215;28;20288;-58
2024/01/07 11:24:32;;;;;;;21.83;7.60;;;;;;;;;;5090053;28;20134;-58
2024/01/07 11:27:01;;;;;;;22.08;8.43;;;;;;;;;;5090478;28;20142;-57
2024/01/07 11:29:26;;;;;;;24.48;10.13;;;;;;;;;;5087247;28;20499;-60
2024/01/07 11:31:51;;;;;;;22.07;8.63;;;;;;;;;;5089850;28;20027;-55
2024/01/07 11:34:35;;;;;;;22.70;8.38;;;;;;;;;;5090223;28;20346;-58
2024/01/07 11:37:01;;;;;;;21.88;9.60;;;;;;;;;;5088262;28;20027;-57
2024/01/07 11:39:26;;;;;;;22.83;9.63;;;;;;;;;;5088820;28;20066;-57
2024/01/07 11:41:51;;;;;;;22.53;8.07;;;;;;;;;;5086443;28;20036;-58
2024/01/07 11:44:17;;;;;;;22.90;8.97;;;;;;;;;;5091468;28;20424;-58
2024/01/07 11:46:42;;;;;;;24.00;9.07;;;;;;;;;;5091831;28;20752;-57